createdAt,value
2022-09-28T00:00:45.207Z,88.03
2022-09-28T00:03:14.944Z,88.00
2022-09-28T00:05:45.493Z,87.90
2022-09-28T00:08:12.460Z,87.84
2022-09-28T00:10:39.265Z,88.13
2022-09-28T00:13:06.298Z,87.95
2022-09-28T00:15:33.200Z,88.04
2022-09-28T00:18:01.524Z,88.06
2022-09-28T00:20:28.388Z,88.33
2022-09-28T00:22:55.451Z,87.80
2022-09-28T00:25:23.421Z,88.23
2022-09-28T00:27:50.945Z,88.34
2022-09-28T00:30:17.860Z,88.15
2022-09-28T00:32:44.692Z,88.34
2022-09-28T00:35:16.829Z,88.17
2022-09-28T00:37:46.540Z,88.55
2022-09-28T00:40:13.377Z,88.52
2022-09-28T00:42:40.248Z,88.60
2022-09-28T00:45:12.878Z,88.31
2022-09-28T00:47:55.680Z,88.52
2022-09-28T00:50:29.150Z,88.47
2022-09-28T00:53:03.211Z,88.50
2022-09-28T00:55:35.681Z,88.64
2022-09-28T00:58:05.492Z,88.25
2022-09-28T01:00:32.609Z,88.39
2022-09-28T01:02:59.619Z,88.47
2022-09-28T01:05:30.864Z,88.58
2022-09-28T01:07:59.306Z,88.49
2022-09-28T01:10:33.460Z,88.54
2022-09-28T01:13:06.376Z,88.64
2022-09-28T01:15:45.842Z,88.65
2022-09-28T01:18:19.808Z,88.47
2022-09-28T01:20:56.162Z,88.72
2022-09-28T01:23:48.611Z,88.50
2022-09-28T01:26:47.379Z,88.34
2022-09-28T01:29:22.503Z,89.02
2022-09-28T01:32:02.020Z,88.83
2022-09-28T01:34:37.450Z,88.76
2022-09-28T01:37:12.224Z,88.92
2022-09-28T01:39:47.870Z,89.21
2022-09-28T01:42:21.866Z,88.58
2022-09-28T01:44:51.835Z,89.00
2022-09-28T01:47:24.026Z,89.19
2022-09-28T01:50:01.942Z,89.33
2022-09-28T01:52:35.195Z,89.20
2022-09-28T01:55:10.475Z,89.50
2022-09-28T01:57:43.315Z,89.22
2022-09-28T02:00:24.340Z,89.59
2022-09-28T02:02:59.453Z,89.33
2022-09-28T02:05:32.996Z,89.44
2022-09-28T02:08:08.765Z,89.58
2022-09-28T02:10:42.219Z,89.77
2022-09-28T02:13:14.297Z,89.58
2022-09-28T02:15:51.001Z,89.49
2022-09-28T02:18:17.905Z,89.78
2022-09-28T02:20:50.525Z,89.95
2022-09-28T02:23:18.914Z,89.93
2022-09-28T02:25:54.838Z,89.75
2022-09-28T02:28:24.745Z,90.10
2022-09-28T02:30:51.767Z,90.01
2022-09-28T02:33:25.832Z,89.89
2022-09-28T02:36:02.041Z,89.98
2022-09-28T02:38:28.797Z,90.14
2022-09-28T02:41:04.124Z,90.00
2022-09-28T02:43:44.945Z,89.91
2022-09-28T02:46:24.789Z,90.24
2022-09-28T02:49:20.739Z,89.92
2022-09-28T02:52:08.691Z,90.29
2022-09-28T02:55:03.635Z,90.41
2022-09-28T02:58:10.954Z,90.46
2022-09-28T03:00:50.413Z,90.35
2022-09-28T03:03:29.338Z,90.19
2022-09-28T03:06:02.289Z,90.47
2022-09-28T03:08:35.886Z,90.41
2022-09-28T03:11:08.446Z,90.39
2022-09-28T03:13:36.563Z,90.62
2022-09-28T03:16:11.101Z,90.27
2022-09-28T03:18:38.420Z,90.57
2022-09-28T03:21:10.892Z,90.75
2022-09-28T03:23:44.009Z,90.90
2022-09-28T03:26:11.862Z,90.55
2022-09-28T03:28:41.121Z,91.03
2022-09-28T03:31:09.565Z,90.91
2022-09-28T03:33:39.594Z,91.08
2022-09-28T03:36:08.580Z,91.15
2022-09-28T03:38:37.827Z,90.81
2022-09-28T03:41:04.838Z,91.32
2022-09-28T03:43:34.350Z,91.39
2022-09-28T03:46:02.615Z,91.41
2022-09-28T03:48:33.161Z,91.32
2022-09-28T03:51:03.978Z,91.44
2022-09-28T03:53:31.181Z,91.59
2022-09-28T03:56:11.925Z,91.61
2022-09-28T03:58:44.988Z,91.33
2022-09-28T04:01:17.229Z,91.94
2022-09-28T04:03:46.802Z,91.70
2022-09-28T04:06:26.000Z,91.70
2022-09-28T04:08:57.417Z,91.47
2022-09-28T04:11:27.051Z,91.97
2022-09-28T04:13:56.315Z,91.77
2022-09-28T04:16:25.105Z,91.85
2022-09-28T04:18:53.837Z,91.77
2022-09-28T04:21:29.470Z,92.06
2022-09-28T04:24:03.575Z,91.92
2022-09-28T04:26:36.229Z,92.10
2022-09-28T04:29:10.765Z,92.66
2022-09-28T04:31:51.512Z,92.09
2022-09-28T04:34:31.850Z,92.45
2022-09-28T04:37:10.674Z,92.51
2022-09-28T04:39:51.060Z,92.47
2022-09-28T04:42:27.752Z,92.46
2022-09-28T04:44:57.731Z,92.66
2022-09-28T04:47:33.633Z,92.43
2022-09-28T04:50:17.471Z,92.77
2022-09-28T04:52:53.945Z,92.94
2022-09-28T04:55:28.292Z,92.83
2022-09-28T04:57:56.948Z,92.79
2022-09-28T05:00:57.740Z,92.53
2022-09-28T05:07:01.070Z,92.92
2022-09-28T05:13:30.806Z,92.49
2022-09-28T05:16:42.643Z,92.78
2022-09-28T05:22:36.864Z,92.82
2022-09-28T05:26:33.502Z,92.92
2022-09-28T05:28:42.578Z,92.53
2022-09-28T05:31:24.728Z,92.59
2022-09-28T05:34:15.968Z,92.60
2022-09-28T05:37:15.186Z,92.42
2022-09-28T05:39:55.123Z,92.50
2022-09-28T05:43:02.888Z,92.30
2022-09-28T05:45:39.700Z,92.32
2022-09-28T05:48:17.371Z,92.55
2022-09-28T05:53:45.878Z,92.43
2022-09-28T05:56:24.752Z,92.32
2022-09-28T05:59:02.304Z,92.34
2022-09-28T06:01:32.527Z,92.51
2022-09-28T06:04:04.628Z,92.54
2022-09-28T06:06:31.728Z,92.50
2022-09-28T06:09:05.480Z,92.38
2022-09-28T06:11:33.145Z,92.90
2022-09-28T06:14:11.293Z,92.75
2022-09-28T06:16:50.408Z,92.71
2022-09-28T06:19:18.870Z,93.07
2022-09-28T06:21:52.561Z,92.41
2022-09-28T06:24:42.876Z,92.65
2022-09-28T06:27:12.748Z,92.54
2022-09-28T06:29:43.041Z,92.17
2022-09-28T06:32:21.892Z,92.47
2022-09-28T06:34:56.717Z,92.11
2022-09-28T06:37:29.987Z,92.49
2022-09-28T06:39:56.758Z,92.75
2022-09-28T06:42:33.668Z,92.31
2022-09-28T06:45:10.228Z,92.76
2022-09-28T06:47:39.630Z,92.34
2022-09-28T06:50:29.270Z,92.36
2022-09-28T06:53:05.269Z,92.88
2022-09-28T06:55:43.301Z,93.11
2022-09-28T06:58:17.852Z,93.00
2022-09-28T07:01:02.045Z,92.96
2022-09-28T07:09:24.339Z,93.66
2022-09-28T07:11:55.725Z,93.57
2022-09-28T07:14:47.369Z,93.62
2022-09-28T07:17:23.493Z,94.02
2022-09-28T07:19:54.966Z,94.34
2022-09-28T07:22:38.238Z,94.72
2022-09-28T07:25:20.116Z,94.40
2022-09-28T07:27:48.950Z,94.26
2022-09-28T07:33:19.495Z,94.35
2022-09-28T07:35:56.333Z,94.64
2022-09-28T07:38:43.835Z,94.94
2022-09-28T07:41:20.300Z,94.65
2022-09-28T07:44:04.169Z,94.80
2022-09-28T07:46:50.110Z,95.13
2022-09-28T07:49:19.004Z,95.32
2022-09-28T07:51:54.259Z,95.45
2022-09-28T07:54:23.528Z,95.62
2022-09-28T07:57:06.028Z,95.48
2022-09-28T08:02:36.215Z,96.15
2022-09-28T08:05:19.533Z,96.16
2022-09-28T08:07:55.253Z,96.13
2022-09-28T08:10:42.407Z,96.29
2022-09-28T08:13:23.515Z,96.34
2022-09-28T08:16:03.676Z,96.63
2022-09-28T08:18:33.044Z,96.28
2022-09-28T08:21:15.188Z,96.06
2022-09-28T08:23:47.796Z,96.48
2022-09-28T08:26:20.123Z,96.39
2022-09-28T08:28:51.591Z,96.47
2022-09-28T08:31:22.724Z,96.65
2022-09-28T08:33:49.736Z,96.71
2022-09-28T08:36:27.793Z,96.28
2022-09-28T08:42:09.001Z,96.43
2022-09-28T08:45:02.086Z,96.16
2022-09-28T08:47:48.560Z,96.24
2022-09-28T08:50:35.848Z,95.96
2022-09-28T08:53:18.361Z,96.04
2022-09-28T08:55:51.382Z,95.31
2022-09-28T08:58:38.554Z,95.57
2022-09-28T09:01:19.398Z,95.23
2022-09-28T09:04:04.124Z,94.61
2022-09-28T09:06:46.629Z,93.11
2022-09-28T09:09:33.704Z,93.78
2022-09-28T09:12:17.389Z,93.50
2022-09-28T09:15:22.119Z,93.10
2022-09-28T09:18:19.758Z,92.17
2022-09-28T09:21:17.048Z,91.97
2022-09-28T09:24:00.584Z,91.23
2022-09-28T09:26:39.310Z,90.60
2022-09-28T09:29:30.451Z,89.46
2022-09-28T09:32:19.870Z,89.41
2022-09-28T09:35:29.260Z,89.16
2022-09-28T09:38:13.154Z,88.82
2022-09-28T09:40:55.894Z,87.10
2022-09-28T09:43:50.600Z,85.81
2022-09-28T09:46:27.060Z,85.91
2022-09-28T09:49:08.163Z,83.45
2022-09-28T09:51:45.966Z,84.24
2022-09-28T09:54:29.744Z,82.79
2022-09-28T09:57:06.406Z,83.53
2022-09-28T09:59:39.928Z,84.34
2022-09-28T10:02:22.515Z,84.24
2022-09-28T10:04:52.399Z,83.90
2022-09-28T10:07:30.760Z,81.99
2022-09-28T10:10:11.579Z,84.39
2022-09-28T10:12:44.020Z,85.45
2022-09-28T10:15:19.746Z,85.93
2022-09-28T10:17:48.429Z,84.67
2022-09-28T10:20:29.003Z,80.89
2022-09-28T10:23:03.315Z,80.25
2022-09-28T10:25:34.188Z,77.27
2022-09-28T10:31:36.603Z,77.26
2022-09-28T10:34:11.749Z,77.08
2022-09-28T10:36:52.327Z,75.79
2022-09-28T10:39:34.394Z,76.23
2022-09-28T10:42:28.922Z,74.16
2022-09-28T10:45:19.402Z,75.13
2022-09-28T10:47:53.990Z,74.34
2022-09-28T10:50:23.614Z,73.67
2022-09-28T10:52:50.307Z,71.54
2022-09-28T10:55:36.855Z,67.89
2022-09-28T10:58:27.538Z,62.46
2022-09-28T11:01:25.701Z,61.84
2022-09-28T11:04:06.615Z,62.28
2022-09-28T11:06:42.357Z,60.95
2022-09-28T11:09:29.765Z,60.31
2022-09-28T11:12:03.583Z,60.98
2022-09-28T11:14:42.948Z,60.30
2022-09-28T11:17:17.646Z,59.48
2022-09-28T11:19:54.689Z,58.78
2022-09-28T11:22:28.416Z,59.92
2022-09-28T11:25:16.438Z,59.64
2022-09-28T11:27:58.969Z,60.03
2022-09-28T11:30:32.717Z,59.82
2022-09-28T11:33:19.092Z,59.57
2022-09-28T11:36:02.373Z,59.97
2022-09-28T11:38:39.618Z,60.69
2022-09-28T11:41:25.639Z,61.29
2022-09-28T11:44:22.873Z,61.37
2022-09-28T11:47:02.268Z,62.44
2022-09-28T11:49:39.085Z,62.26
2022-09-28T11:52:16.707Z,62.08
2022-09-28T11:54:49.012Z,62.35
2022-09-28T11:57:22.463Z,62.21
2022-09-28T12:03:20.792Z,61.26
2022-09-28T12:06:00.177Z,61.57
2022-09-28T12:08:34.766Z,61.46
2022-09-28T12:11:05.643Z,61.79
2022-09-28T12:13:37.593Z,62.36
2022-09-28T12:19:02.910Z,62.20
2022-09-28T12:21:39.177Z,62.24
2022-09-28T12:24:20.301Z,62.68
2022-09-28T12:26:56.617Z,61.95
2022-09-28T12:29:37.884Z,61.31
2022-09-28T12:32:21.752Z,60.47
2022-09-28T12:34:58.920Z,60.76
2022-09-28T12:38:09.981Z,59.75
2022-09-28T12:40:42.286Z,60.69
2022-09-28T12:43:27.982Z,61.03
2022-09-28T12:46:17.325Z,62.32
2022-09-28T12:52:10.047Z,61.14
2022-09-28T12:58:03.502Z,60.06
2022-09-28T13:00:41.350Z,60.70
2022-09-28T13:03:38.334Z,58.59
2022-09-28T13:06:37.665Z,57.99
2022-09-28T13:09:34.562Z,57.88
2022-09-28T13:12:35.512Z,59.03
2022-09-28T13:15:29.711Z,58.35
2022-09-28T13:18:13.361Z,58.33
2022-09-28T13:20:59.479Z,55.03
2022-09-28T13:23:40.223Z,55.09
2022-09-28T13:26:24.560Z,56.20
2022-09-28T13:28:58.455Z,54.75
2022-09-28T13:31:31.800Z,54.48
2022-09-28T13:34:03.030Z,55.35
2022-09-28T13:36:42.495Z,53.29
2022-09-28T13:39:31.295Z,50.67
2022-09-28T13:42:02.655Z,54.35
2022-09-28T13:44:47.564Z,53.29
2022-09-28T13:47:34.464Z,55.87
2022-09-28T13:50:23.692Z,54.11
2022-09-28T13:53:07.762Z,54.79
2022-09-28T13:55:51.342Z,55.05
2022-09-28T13:58:34.933Z,56.04
2022-09-28T14:01:09.541Z,56.57
2022-09-28T14:03:58.865Z,56.80
2022-09-28T14:06:30.708Z,57.31
2022-09-28T14:09:38.685Z,58.34
2022-09-28T14:12:45.467Z,59.60
2022-09-28T14:15:59.572Z,62.95
2022-09-28T14:22:06.595Z,64.16
2022-09-28T14:25:22.743Z,64.23
2022-09-28T14:28:37.906Z,67.20
2022-09-28T14:31:29.118Z,65.59
2022-09-28T14:34:31.643Z,66.21
2022-09-28T14:37:20.201Z,67.39
2022-09-28T14:40:04.181Z,68.06
2022-09-28T14:42:41.663Z,68.18
2022-09-28T14:45:43.601Z,69.51
2022-09-28T14:48:45.111Z,74.24
2022-09-28T14:52:02.251Z,72.00
2022-09-28T14:54:39.936Z,71.91
2022-09-28T14:57:20.972Z,72.95
2022-09-28T15:00:17.669Z,71.35
2022-09-28T15:02:56.244Z,69.74
2022-09-28T15:06:11.666Z,70.78
2022-09-28T15:09:01.474Z,71.81
2022-09-28T15:14:44.971Z,69.88
2022-09-28T15:17:24.321Z,65.92
2022-09-28T15:20:31.354Z,61.10
2022-09-28T15:23:02.008Z,63.76
2022-09-28T15:26:03.578Z,63.69
2022-09-28T15:28:57.748Z,59.42
2022-09-28T15:31:41.233Z,56.41
2022-09-28T15:37:39.631Z,57.60
2022-09-28T15:40:32.509Z,58.71
2022-09-28T15:43:38.767Z,59.20
2022-09-28T15:46:27.322Z,60.83
2022-09-28T15:49:10.375Z,61.43
2022-09-28T15:52:05.175Z,62.15
2022-09-28T15:54:45.243Z,62.70
2022-09-28T15:57:40.180Z,63.82
2022-09-28T16:03:42.238Z,64.27
2022-09-28T16:10:02.828Z,65.42
2022-09-28T16:12:50.540Z,65.97
2022-09-28T16:15:29.045Z,66.63
2022-09-28T16:18:04.466Z,67.72
2022-09-28T16:21:24.743Z,68.21
2022-09-28T16:24:06.009Z,68.50
2022-09-28T16:26:43.763Z,69.05
2022-09-28T16:33:02.251Z,70.30
2022-09-28T16:35:34.669Z,70.35
2022-09-28T16:38:31.172Z,70.32
2022-09-28T16:41:08.767Z,70.91
2022-09-28T16:43:47.543Z,71.07
2022-09-28T16:46:28.325Z,72.40
2022-09-28T16:49:24.678Z,72.57
2022-09-28T16:51:58.124Z,72.96
2022-09-28T16:54:50.620Z,73.81
2022-09-28T16:57:25.047Z,74.13
2022-09-28T17:00:00.651Z,74.31
2022-09-28T17:02:46.148Z,74.05
2022-09-28T17:05:39.912Z,74.77
2022-09-28T17:08:20.325Z,74.32
2022-09-28T17:11:27.080Z,74.79
2022-09-28T17:14:13.770Z,74.83
2022-09-28T17:19:49.903Z,74.77
2022-09-28T17:22:34.090Z,74.92
2022-09-28T17:25:51.558Z,74.96
2022-09-28T17:28:27.168Z,74.99
2022-09-28T17:31:18.402Z,75.24
2022-09-28T17:34:31.362Z,75.65
2022-09-28T17:37:14.030Z,75.54
2022-09-28T17:40:37.203Z,75.46
2022-09-28T17:44:03.312Z,75.66
2022-09-28T17:49:39.268Z,75.67
2022-09-28T17:52:38.988Z,76.39
2022-09-28T17:55:17.726Z,76.41
2022-09-28T17:57:44.596Z,76.65
2022-09-28T18:06:49.154Z,77.37
2022-09-28T18:10:11.478Z,77.27
2022-09-28T18:13:10.235Z,77.22
2022-09-28T18:15:54.444Z,77.67
2022-09-28T18:18:43.332Z,77.87
2022-09-28T18:24:38.958Z,78.15
2022-09-28T18:27:37.945Z,78.18
2022-09-28T18:30:46.033Z,78.76
2022-09-28T18:33:22.002Z,78.60
2022-09-28T18:36:09.697Z,79.01
2022-09-28T18:39:06.419Z,78.87
2022-09-28T18:48:12.223Z,79.35
2022-09-28T18:54:11.255Z,79.63
2022-09-28T18:56:40.505Z,79.52
2022-09-28T19:02:25.546Z,79.55
2022-09-28T19:08:18.055Z,79.57
2022-09-28T19:14:11.473Z,80.09
2022-09-28T19:37:43.502Z,80.60
2022-09-28T19:44:10.395Z,80.84
2022-09-28T20:00:49.490Z,81.71
2022-09-28T20:03:18.956Z,81.42
2022-09-28T20:05:56.553Z,81.75
2022-09-28T20:08:23.816Z,81.81
2022-09-28T20:10:56.380Z,81.95
2022-09-28T20:13:32.622Z,81.85
2022-09-28T20:16:08.268Z,82.06
2022-09-28T20:18:37.947Z,82.15
2022-09-28T20:21:07.023Z,82.27
2022-09-28T20:23:34.045Z,82.38
2022-09-28T20:26:03.047Z,82.49
2022-09-28T20:28:35.494Z,82.70
2022-09-28T20:31:06.721Z,82.88
2022-09-28T20:33:35.231Z,82.74
2022-09-28T20:36:06.169Z,82.58
2022-09-28T20:38:33.119Z,82.96
2022-09-28T20:41:00.326Z,83.04
2022-09-28T20:43:37.412Z,82.90
2022-09-28T20:46:09.529Z,83.25
2022-09-28T20:48:38.211Z,83.21
2022-09-28T20:51:09.769Z,83.17
2022-09-28T20:53:37.335Z,83.37
2022-09-28T20:56:08.244Z,83.33
2022-09-28T20:58:40.902Z,83.27
2022-09-28T21:01:14.678Z,83.49
2022-09-28T21:03:45.571Z,83.54
2022-09-28T21:06:20.723Z,83.66
2022-09-28T21:08:54.563Z,83.61
2022-09-28T21:11:26.294Z,84.14
2022-09-28T21:13:59.467Z,83.84
2022-09-28T21:16:42.501Z,83.74
2022-09-28T21:19:13.330Z,84.17
2022-09-28T21:21:48.153Z,84.20
2022-09-28T21:24:20.697Z,83.82
2022-09-28T21:26:47.732Z,83.87
2022-09-28T21:29:19.967Z,84.17
2022-09-28T21:31:51.643Z,84.09
2022-09-28T21:34:20.734Z,83.96
2022-09-28T21:36:51.269Z,84.17
2022-09-28T21:39:19.208Z,84.26
2022-09-28T21:41:49.335Z,84.30
2022-09-28T21:44:17.923Z,84.28
2022-09-28T21:46:44.916Z,84.38
2022-09-28T21:49:14.625Z,84.25
2022-09-28T21:51:41.428Z,84.56
2022-09-28T21:54:16.043Z,84.45
2022-09-28T21:59:59.467Z,84.64
2022-09-28T22:02:43.576Z,84.63
2022-09-28T22:07:54.082Z,84.99
2022-09-28T22:10:20.806Z,85.01
2022-09-28T22:12:49.108Z,85.25
2022-09-28T22:15:15.991Z,85.34
2022-09-28T22:17:43.117Z,85.06
2022-09-28T22:20:10.064Z,85.41
2022-09-28T22:22:38.129Z,85.29
2022-09-28T22:25:05.728Z,85.29
2022-09-28T22:27:32.380Z,84.80
2022-09-28T22:29:59.235Z,85.14
2022-09-28T22:32:26.229Z,85.52
2022-09-28T22:34:53.061Z,85.46
2022-09-28T22:37:22.780Z,85.00
2022-09-28T22:39:51.138Z,85.17
2022-09-28T22:42:17.787Z,85.24
2022-09-28T22:44:44.698Z,85.32
2022-09-28T22:47:11.421Z,84.84
2022-09-28T22:49:38.095Z,85.05
2022-09-28T22:52:05.150Z,84.89
2022-09-28T22:54:32.650Z,85.36
2022-09-28T22:57:00.831Z,85.25
2022-09-28T22:59:27.492Z,85.54
2022-09-28T23:01:54.396Z,85.68
2022-09-28T23:04:21.050Z,85.40
2022-09-28T23:06:47.690Z,85.51
2022-09-28T23:09:14.949Z,85.38
2022-09-28T23:11:42.630Z,85.96
2022-09-28T23:14:12.108Z,85.63
2022-09-28T23:16:40.787Z,85.67
2022-09-28T23:19:07.454Z,85.68
2022-09-28T23:21:34.156Z,85.66
2022-09-28T23:24:01.739Z,85.79
2022-09-28T23:26:30.588Z,86.05
2022-09-28T23:28:58.299Z,86.12
2022-09-28T23:31:28.854Z,85.89
2022-09-28T23:33:59.649Z,85.99
2022-09-28T23:36:26.824Z,85.87
2022-09-28T23:38:54.063Z,86.18
2022-09-28T23:41:21.638Z,86.39
2022-09-28T23:43:48.400Z,86.30
2022-09-28T23:46:20.955Z,86.46
2022-09-28T23:48:50.796Z,86.20
2022-09-28T23:51:17.769Z,86.56
2022-09-28T23:53:44.920Z,86.28
2022-09-28T23:56:11.558Z,86.53
2022-09-28T23:58:39.454Z,86.47
